createdAt,value
2022-08-20T00:00:01.183Z,19.60
2022-08-20T00:02:05.145Z,19.60
2022-08-20T00:04:07.911Z,19.50
2022-08-20T00:06:14.137Z,19.40
2022-08-20T00:08:16.867Z,19.40
2022-08-20T00:10:19.765Z,19.40
2022-08-20T00:12:22.490Z,19.40
2022-08-20T00:14:25.207Z,19.30
2022-08-20T00:16:32.625Z,19.30
2022-08-20T00:18:36.983Z,19.30
2022-08-20T00:20:41.336Z,19.30
2022-08-20T00:22:45.381Z,19.30
2022-08-20T00:24:48.091Z,19.40
2022-08-20T00:26:51.832Z,19.30
2022-08-20T00:28:55.804Z,19.30
2022-08-20T00:30:58.539Z,19.20
2022-08-20T00:33:02.540Z,19.20
2022-08-20T00:35:05.904Z,19.20
2022-08-20T00:37:08.858Z,19.20
2022-08-20T00:39:12.951Z,19.20
2022-08-20T00:41:17.113Z,19.20
2022-08-20T00:43:32.565Z,19.20
2022-08-20T00:45:36.178Z,19.20
2022-08-20T00:47:41.369Z,19.20
2022-08-20T00:49:54.324Z,19.30
2022-08-20T00:52:00.540Z,19.20
2022-08-20T00:54:05.017Z,19.30
2022-08-20T00:56:09.387Z,19.30
2022-08-20T00:58:12.340Z,19.30
2022-08-20T01:00:17.695Z,19.30
2022-08-20T01:02:20.533Z,19.30
2022-08-20T01:04:24.849Z,19.40
2022-08-20T01:06:28.742Z,19.40
2022-08-20T01:08:31.534Z,19.40
2022-08-20T01:10:36.679Z,19.40
2022-08-20T01:12:42.004Z,19.40
2022-08-20T01:14:46.448Z,19.50
2022-08-20T01:16:49.230Z,19.50
2022-08-20T01:18:51.962Z,19.50
2022-08-20T01:20:56.195Z,19.50
2022-08-20T01:23:19.701Z,19.60
2022-08-20T01:25:24.995Z,19.60
2022-08-20T01:27:29.080Z,19.60
2022-08-20T01:29:38.292Z,19.60
2022-08-20T01:31:41.503Z,19.60
2022-08-20T01:33:44.400Z,19.60
2022-08-20T01:35:49.620Z,19.60
2022-08-20T01:37:52.380Z,19.70
2022-08-20T01:39:55.215Z,19.70
2022-08-20T01:42:01.463Z,19.60
2022-08-20T01:44:05.760Z,19.60
2022-08-20T01:46:14.194Z,19.60
2022-08-20T01:48:17.001Z,19.60
2022-08-20T01:50:26.227Z,19.60
2022-08-20T01:52:32.124Z,19.60
2022-08-20T01:54:34.859Z,19.70
2022-08-20T01:56:38.205Z,19.60
2022-08-20T01:58:42.404Z,19.60
2022-08-20T02:00:46.460Z,19.60
2022-08-20T02:02:49.329Z,19.60
2022-08-20T02:04:52.583Z,19.60
2022-08-20T02:06:57.711Z,19.60
2022-08-20T02:09:01.499Z,19.60
2022-08-20T02:11:04.217Z,19.60
2022-08-20T02:13:10.115Z,19.60
2022-08-20T02:15:12.923Z,19.60
2022-08-20T02:17:17.716Z,19.60
2022-08-20T02:19:22.149Z,19.60
2022-08-20T02:21:24.967Z,19.60
2022-08-20T02:23:27.848Z,19.60
2022-08-20T02:25:31.861Z,19.50
2022-08-20T02:27:34.572Z,19.60
2022-08-20T02:29:37.319Z,19.50
2022-08-20T02:32:23.567Z,19.60
2022-08-20T02:34:21.634Z,19.60
2022-08-20T02:36:26.816Z,19.60
2022-08-20T02:38:29.772Z,19.50
2022-08-20T02:40:32.666Z,19.50
2022-08-20T02:42:35.420Z,19.60
2022-08-20T02:44:38.157Z,19.60
2022-08-20T02:46:40.886Z,19.60
2022-08-20T02:48:43.629Z,19.60
2022-08-20T02:50:48.949Z,19.60
2022-08-20T02:52:52.318Z,19.50
2022-08-20T02:54:55.136Z,19.60
2022-08-20T02:56:57.856Z,19.60
2022-08-20T02:59:00.580Z,19.60
2022-08-20T03:01:03.842Z,19.60
2022-08-20T03:03:07.086Z,19.60
2022-08-20T03:05:10.316Z,19.70
2022-08-20T03:07:14.507Z,19.70
2022-08-20T03:09:17.238Z,19.70
2022-08-20T03:11:20.515Z,19.70
2022-08-20T03:13:24.170Z,19.70
2022-08-20T03:15:26.906Z,19.70
2022-08-20T03:17:29.705Z,19.70
2022-08-20T03:19:32.451Z,19.70
2022-08-20T03:21:35.242Z,19.60
2022-08-20T03:23:40.457Z,19.70
2022-08-20T03:25:43.322Z,19.70
2022-08-20T03:27:47.101Z,19.70
2022-08-20T03:29:55.899Z,19.70
2022-08-20T03:31:59.091Z,19.70
2022-08-20T03:34:01.846Z,19.70
2022-08-20T03:36:04.903Z,19.70
2022-08-20T03:38:08.687Z,19.70
2022-08-20T03:40:16.260Z,19.70
2022-08-20T03:42:19.036Z,19.60
2022-08-20T03:44:21.842Z,19.60
2022-08-20T03:46:24.939Z,19.60
2022-08-20T03:48:27.648Z,19.60
2022-08-20T03:50:31.889Z,19.60
2022-08-20T03:52:34.617Z,19.60
2022-08-20T03:54:37.335Z,19.60
2022-08-20T03:56:41.383Z,19.60
2022-08-20T03:58:44.403Z,19.60
2022-08-20T04:00:49.006Z,19.60
2022-08-20T04:02:51.733Z,19.60
2022-08-20T04:04:55.053Z,19.60
2022-08-20T04:06:57.788Z,19.60
2022-08-20T04:09:01.015Z,19.60
2022-08-20T04:11:03.728Z,19.50
2022-08-20T04:13:07.931Z,19.40
2022-08-20T04:15:12.271Z,19.30
2022-08-20T04:17:15.129Z,19.30
2022-08-20T04:19:17.919Z,19.20
2022-08-20T04:21:20.648Z,19.20
2022-08-20T04:23:23.443Z,19.10
2022-08-20T04:25:26.276Z,19.10
2022-08-20T04:27:29.832Z,19.10
2022-08-20T04:29:35.491Z,19.10
2022-08-20T04:31:38.312Z,19.10
2022-08-20T04:33:43.056Z,19.00
2022-08-20T04:35:45.759Z,19.00
2022-08-20T04:37:48.685Z,18.90
2022-08-20T04:40:05.588Z,19.00
2022-08-20T04:42:08.712Z,18.90
2022-08-20T04:44:11.742Z,19.00
2022-08-20T04:46:16.293Z,19.00
2022-08-20T04:48:19.116Z,19.00
2022-08-20T04:50:22.113Z,18.90
2022-08-20T04:52:25.159Z,19.00
2022-08-20T04:54:27.986Z,19.10
2022-08-20T04:56:38.772Z,19.10
2022-08-20T04:58:41.705Z,19.00
2022-08-20T05:00:46.670Z,19.00
2022-08-20T05:02:50.777Z,19.10
2022-08-20T05:04:53.510Z,19.10
2022-08-20T05:06:56.257Z,19.10
2022-08-20T05:08:59.849Z,19.10
2022-08-20T05:11:21.517Z,19.10
2022-08-20T05:13:27.498Z,19.20
2022-08-20T05:15:30.385Z,19.20
2022-08-20T05:17:33.110Z,19.20
2022-08-20T05:19:38.984Z,19.20
2022-08-20T05:21:41.811Z,19.30
2022-08-20T05:23:44.536Z,19.30
2022-08-20T05:25:48.229Z,19.20
2022-08-20T05:27:50.948Z,19.20
2022-08-20T05:29:54.757Z,19.20
2022-08-20T05:31:57.471Z,19.30
2022-08-20T05:34:00.252Z,19.30
2022-08-20T05:36:06.351Z,19.30
2022-08-20T05:38:10.941Z,19.30
2022-08-20T05:40:14.722Z,19.40
2022-08-20T05:42:17.619Z,19.30
2022-08-20T05:44:20.748Z,19.40
2022-08-20T05:46:23.798Z,19.40
2022-08-20T05:48:26.547Z,19.50
2022-08-20T05:50:29.275Z,19.50
2022-08-20T05:52:33.404Z,19.60
2022-08-20T05:54:37.593Z,19.60
2022-08-20T05:56:40.325Z,19.70
2022-08-20T05:58:43.070Z,19.70
2022-08-20T06:00:45.962Z,19.80
2022-08-20T06:03:06.142Z,19.90
2022-08-20T06:05:09.662Z,19.90
2022-08-20T06:07:12.378Z,19.90
2022-08-20T06:09:31.396Z,20.00
2022-08-20T06:11:37.294Z,20.00
2022-08-20T06:13:40.344Z,20.10
2022-08-20T06:15:43.069Z,20.10
2022-08-20T06:17:45.780Z,20.20
2022-08-20T06:20:02.829Z,20.20
2022-08-20T06:22:08.724Z,20.30
2022-08-20T06:24:25.649Z,20.30
2022-08-20T06:26:30.174Z,20.30
2022-08-20T06:28:33.550Z,20.50
2022-08-20T06:30:36.385Z,20.50
2022-08-20T06:32:40.051Z,20.50
2022-08-20T06:34:50.617Z,20.50
2022-08-20T06:36:53.735Z,20.40
2022-08-20T06:38:58.270Z,20.40
2022-08-20T06:41:02.853Z,20.40
2022-08-20T06:43:09.776Z,20.40
2022-08-20T06:45:12.621Z,20.40
2022-08-20T06:47:15.512Z,20.40
2022-08-20T06:49:18.558Z,20.40
2022-08-20T06:51:21.881Z,20.40
2022-08-20T06:53:25.351Z,20.30
2022-08-20T06:55:28.287Z,20.30
2022-08-20T06:57:32.340Z,20.30
2022-08-20T06:59:35.112Z,20.30
2022-08-20T07:01:37.884Z,20.30
2022-08-20T07:03:42.057Z,20.40
2022-08-20T07:05:57.499Z,20.40
2022-08-20T07:08:00.960Z,20.40
2022-08-20T07:10:03.782Z,20.40
2022-08-20T07:12:06.788Z,20.50
2022-08-20T07:14:11.807Z,20.50
2022-08-20T07:16:14.526Z,20.50
2022-08-20T07:18:17.862Z,20.60
2022-08-20T07:20:32.671Z,20.70
2022-08-20T07:22:36.914Z,20.80
2022-08-20T07:24:41.238Z,20.90
2022-08-20T07:26:44.744Z,21.00
2022-08-20T07:28:47.619Z,21.00
2022-08-20T07:31:13.556Z,21.20
2022-08-20T07:33:18.511Z,21.30
2022-08-20T07:35:21.369Z,21.40
2022-08-20T07:37:24.748Z,21.50
2022-08-20T07:39:28.484Z,21.80
2022-08-20T07:41:32.785Z,21.80
2022-08-20T07:43:35.615Z,21.80
2022-08-20T07:45:38.983Z,21.90
2022-08-20T07:47:43.667Z,21.90
2022-08-20T07:49:46.389Z,21.90
2022-08-20T07:51:49.110Z,21.90
2022-08-20T07:53:52.573Z,22.00
2022-08-20T07:55:59.187Z,22.00
2022-08-20T07:58:07.637Z,22.00
2022-08-20T08:00:11.670Z,22.20
2022-08-20T08:02:14.416Z,22.30
2022-08-20T08:04:18.493Z,22.30
2022-08-20T08:06:29.939Z,22.40
2022-08-20T08:08:33.523Z,22.40
2022-08-20T08:10:36.628Z,22.40
2022-08-20T08:12:44.560Z,22.40
2022-08-20T08:14:47.280Z,22.40
2022-08-20T08:16:50.121Z,22.40
2022-08-20T08:18:56.313Z,22.50
2022-08-20T08:21:00.428Z,22.60
2022-08-20T08:23:03.167Z,22.60
2022-08-20T08:25:06.559Z,22.50
2022-08-20T08:27:09.500Z,22.60
2022-08-20T08:29:12.565Z,22.60
2022-08-20T08:31:15.435Z,22.70
2022-08-20T08:33:30.943Z,22.60
2022-08-20T08:35:34.126Z,22.70
2022-08-20T08:37:38.814Z,22.90
2022-08-20T08:39:42.226Z,23.00
2022-08-20T08:41:48.402Z,23.10
2022-08-20T08:43:53.910Z,23.30
2022-08-20T08:45:59.799Z,23.30
2022-08-20T08:48:02.520Z,23.40
2022-08-20T08:50:05.991Z,23.40
2022-08-20T08:52:11.929Z,23.60
2022-08-20T08:54:18.307Z,23.60
2022-08-20T08:56:29.766Z,23.60
2022-08-20T08:58:34.024Z,23.60
2022-08-20T09:00:36.861Z,23.70
2022-08-20T09:03:02.102Z,23.70
2022-08-20T09:05:11.657Z,23.80
2022-08-20T09:07:15.754Z,23.90
2022-08-20T09:09:21.525Z,24.10
2022-08-20T09:11:24.997Z,24.10
2022-08-20T09:13:27.769Z,24.10
2022-08-20T09:15:30.695Z,24.20
2022-08-20T09:17:33.411Z,24.20
2022-08-20T09:19:36.200Z,24.20
2022-08-20T09:21:38.925Z,24.30
2022-08-20T09:23:41.895Z,24.20
2022-08-20T09:25:46.025Z,24.20
2022-08-20T09:27:48.819Z,24.10
2022-08-20T09:29:54.416Z,24.00
2022-08-20T09:32:05.636Z,23.90
2022-08-20T09:34:09.489Z,23.80
2022-08-20T09:36:32.085Z,23.70
2022-08-20T09:38:35.074Z,23.70
2022-08-20T09:40:37.813Z,23.60
2022-08-20T09:42:41.986Z,23.70
2022-08-20T09:44:44.783Z,23.60
2022-08-20T09:46:47.513Z,23.60
2022-08-20T09:48:50.221Z,23.60
2022-08-20T09:50:52.956Z,23.50
2022-08-20T09:52:55.812Z,23.30
2022-08-20T09:55:00.209Z,23.20
2022-08-20T09:57:04.969Z,23.10
2022-08-20T09:59:09.026Z,23.10
2022-08-20T10:01:14.784Z,23.10
2022-08-20T10:03:17.761Z,23.20
2022-08-20T10:05:20.595Z,23.10
2022-08-20T10:07:23.322Z,23.00
2022-08-20T10:09:26.394Z,23.00
2022-08-20T10:11:29.142Z,22.90
2022-08-20T10:13:32.881Z,22.70
2022-08-20T10:15:36.943Z,22.70
2022-08-20T10:17:40.443Z,22.60
2022-08-20T10:19:43.191Z,22.70
2022-08-20T10:21:46.935Z,22.70
2022-08-20T10:23:50.053Z,22.60
2022-08-20T10:25:52.853Z,22.80
2022-08-20T10:27:55.700Z,22.90
2022-08-20T10:29:58.593Z,22.90
2022-08-20T10:32:12.031Z,22.90
2022-08-20T10:34:14.759Z,23.00
2022-08-20T10:36:18.199Z,23.10
2022-08-20T10:38:20.929Z,23.20
2022-08-20T10:40:23.890Z,23.30
2022-08-20T10:42:26.635Z,23.50
2022-08-20T10:44:29.359Z,23.60
2022-08-20T10:46:32.114Z,23.60
2022-08-20T10:48:36.153Z,23.60
2022-08-20T10:50:38.890Z,23.60
2022-08-20T10:52:41.610Z,23.50
2022-08-20T10:54:44.481Z,23.50
2022-08-20T10:56:47.191Z,23.60
2022-08-20T10:58:49.913Z,23.70
2022-08-20T11:00:52.762Z,23.70
2022-08-20T11:02:55.502Z,23.80
2022-08-20T11:04:59.565Z,24.00
2022-08-20T11:07:12.164Z,24.20
2022-08-20T11:09:14.889Z,24.40
2022-08-20T11:11:17.658Z,24.50
2022-08-20T11:13:20.389Z,24.70
2022-08-20T11:15:23.110Z,24.70
2022-08-20T11:17:27.511Z,24.90
2022-08-20T11:19:30.272Z,25.60
2022-08-20T11:21:34.340Z,26.20
2022-08-20T11:23:37.081Z,26.70
2022-08-20T11:25:39.821Z,27.40
2022-08-20T11:27:44.206Z,27.70
2022-08-20T11:29:46.933Z,28.20
2022-08-20T11:31:49.710Z,28.00
2022-08-20T11:33:52.420Z,27.60
2022-08-20T11:35:55.140Z,28.40
2022-08-20T11:38:00.972Z,29.20
2022-08-20T11:40:05.133Z,29.80
2022-08-20T11:42:07.925Z,29.90
2022-08-20T11:44:21.154Z,30.10
2022-08-20T11:46:28.337Z,29.80
2022-08-20T11:48:31.356Z,29.80
2022-08-20T11:50:34.090Z,30.00
2022-08-20T11:52:36.807Z,29.50
2022-08-20T11:54:44.376Z,28.80
2022-08-20T11:56:47.088Z,28.20
2022-08-20T11:58:49.912Z,27.80
2022-08-20T12:00:52.641Z,27.50
2022-08-20T12:02:55.519Z,27.30
2022-08-20T12:04:58.491Z,27.10
2022-08-20T12:07:09.009Z,27.30
2022-08-20T12:09:11.724Z,27.70
2022-08-20T12:11:15.824Z,28.60
2022-08-20T12:13:18.532Z,28.20
2022-08-20T12:15:23.381Z,28.70
2022-08-20T12:17:27.165Z,28.40
2022-08-20T12:19:29.896Z,28.10
2022-08-20T12:21:32.635Z,28.00
2022-08-20T12:23:35.331Z,28.60
2022-08-20T12:25:38.059Z,29.30
2022-08-20T12:27:42.214Z,29.90
2022-08-20T12:29:45.492Z,30.40
2022-08-20T12:31:48.235Z,30.80
2022-08-20T12:33:50.962Z,31.00
2022-08-20T12:35:53.785Z,31.00
2022-08-20T12:37:56.505Z,31.60
2022-08-20T12:40:02.419Z,31.40
2022-08-20T12:42:05.819Z,30.20
2022-08-20T12:44:10.639Z,29.70
2022-08-20T12:46:16.200Z,29.30
2022-08-20T12:48:20.774Z,28.70
2022-08-20T12:50:29.659Z,28.40
2022-08-20T12:52:34.193Z,28.10
2022-08-20T12:54:36.924Z,27.90
2022-08-20T12:56:40.160Z,27.50
2022-08-20T12:58:42.875Z,27.30
2022-08-20T13:00:50.935Z,27.20
2022-08-20T13:02:55.225Z,27.10
2022-08-20T13:05:02.504Z,26.90
2022-08-20T13:07:07.530Z,26.70
2022-08-20T13:09:14.488Z,26.70
2022-08-20T13:11:17.225Z,26.60
2022-08-20T13:13:20.328Z,26.70
2022-08-20T13:15:23.981Z,26.90
2022-08-20T13:17:38.297Z,27.10
2022-08-20T13:19:41.961Z,28.40
2022-08-20T13:21:44.696Z,28.50
2022-08-20T13:23:57.546Z,28.20
2022-08-20T13:26:00.280Z,28.70
2022-08-20T13:28:04.808Z,28.50
2022-08-20T13:30:08.894Z,28.60
2022-08-20T13:32:11.613Z,28.20
2022-08-20T13:34:15.647Z,28.10
2022-08-20T13:36:18.500Z,27.60
2022-08-20T13:38:21.245Z,27.60
2022-08-20T13:40:24.157Z,27.50
2022-08-20T13:42:27.264Z,27.40
2022-08-20T13:44:33.002Z,28.00
2022-08-20T13:46:36.075Z,27.70
2022-08-20T13:48:38.834Z,27.70
2022-08-20T13:50:43.175Z,27.40
2022-08-20T13:52:49.885Z,27.40
2022-08-20T13:54:53.012Z,27.50
2022-08-20T13:57:04.345Z,27.40
2022-08-20T13:59:07.048Z,28.10
2022-08-20T14:01:15.141Z,27.90
2022-08-20T14:03:20.090Z,27.60
2022-08-20T14:05:28.637Z,27.80
2022-08-20T14:07:33.044Z,27.70
2022-08-20T14:09:38.346Z,27.60
2022-08-20T14:11:41.080Z,28.10
2022-08-20T14:13:43.783Z,28.20
2022-08-20T14:15:46.641Z,28.00
2022-08-20T14:17:51.480Z,28.60
2022-08-20T14:20:00.689Z,29.00
2022-08-20T14:22:04.003Z,28.50
2022-08-20T14:24:08.534Z,28.50
2022-08-20T14:26:11.265Z,28.30
2022-08-20T14:28:15.199Z,27.90
2022-08-20T14:30:22.577Z,28.20
2022-08-20T14:32:25.284Z,28.70
2022-08-20T14:34:28.017Z,28.80
2022-08-20T14:36:30.758Z,29.20
2022-08-20T14:38:33.469Z,29.20
2022-08-20T14:40:37.704Z,29.20
2022-08-20T14:42:40.503Z,28.90
2022-08-20T14:44:46.034Z,29.10
2022-08-20T14:46:48.797Z,28.60
2022-08-20T14:48:53.484Z,28.30
2022-08-20T14:50:56.340Z,28.10
2022-08-20T14:52:59.178Z,28.00
2022-08-20T14:55:01.991Z,27.90
2022-08-20T14:57:13.013Z,27.60
2022-08-20T14:59:16.688Z,27.40
2022-08-20T15:01:19.455Z,27.20
2022-08-20T15:03:23.920Z,27.30
2022-08-20T15:05:26.739Z,27.50
2022-08-20T15:07:31.892Z,27.70
2022-08-20T15:09:35.426Z,27.40
2022-08-20T15:11:39.948Z,27.30
2022-08-20T15:13:43.991Z,27.10
2022-08-20T15:15:46.737Z,26.90
2022-08-20T15:17:50.700Z,26.90
2022-08-20T15:19:53.421Z,26.80
2022-08-20T15:21:56.176Z,26.70
2022-08-20T15:23:58.893Z,26.60
2022-08-20T15:26:01.615Z,26.60
2022-08-20T15:28:04.725Z,26.60
2022-08-20T15:30:10.580Z,26.70
2022-08-20T15:32:13.446Z,26.60
2022-08-20T15:34:17.741Z,26.70
2022-08-20T15:36:21.044Z,26.70
2022-08-20T15:38:23.885Z,26.70
2022-08-20T15:40:28.906Z,26.70
2022-08-20T15:42:31.840Z,26.70
2022-08-20T15:44:34.971Z,26.60
2022-08-20T15:46:39.660Z,26.60
2022-08-20T15:48:47.576Z,26.50
2022-08-20T15:51:01.139Z,26.60
2022-08-20T15:53:07.775Z,26.60
2022-08-20T15:55:11.385Z,26.70
2022-08-20T15:57:15.262Z,26.80
2022-08-20T15:59:27.638Z,26.70
2022-08-20T16:01:35.379Z,26.50
2022-08-20T16:03:55.345Z,26.40
2022-08-20T16:05:59.641Z,26.30
2022-08-20T16:08:08.826Z,26.30
2022-08-20T16:10:16.606Z,26.20
2022-08-20T16:12:23.248Z,26.30
2022-08-20T16:14:27.426Z,26.20
2022-08-20T16:16:32.920Z,26.20
2022-08-20T16:18:37.488Z,26.20
2022-08-20T16:20:42.664Z,26.20
2022-08-20T16:22:46.441Z,26.10
2022-08-20T16:24:49.156Z,26.10
2022-08-20T16:27:07.642Z,26.00
2022-08-20T16:29:11.974Z,25.90
2022-08-20T16:31:16.883Z,25.80
2022-08-20T16:33:23.326Z,25.70
2022-08-20T16:35:31.726Z,25.50
2022-08-20T16:37:39.049Z,25.50
2022-08-20T16:39:49.705Z,25.40
2022-08-20T16:41:54.920Z,25.40
2022-08-20T16:44:00.089Z,25.50
2022-08-20T16:46:03.899Z,25.50
2022-08-20T16:48:07.671Z,25.60
2022-08-20T16:50:12.069Z,25.50
2022-08-20T16:52:14.787Z,25.40
2022-08-20T16:54:18.996Z,25.20
2022-08-20T16:56:33.529Z,25.20
2022-08-20T16:58:36.223Z,25.10
2022-08-20T17:00:45.072Z,25.00
2022-08-20T17:02:53.138Z,25.00
2022-08-20T17:04:59.366Z,24.90
2022-08-20T17:07:04.740Z,24.90
2022-08-20T17:09:13.004Z,24.80
2022-08-20T17:11:18.012Z,24.80
2022-08-20T17:13:22.162Z,24.80
2022-08-20T17:15:27.987Z,24.80
2022-08-20T17:17:31.571Z,24.70
2022-08-20T17:19:34.692Z,24.70
2022-08-20T17:21:38.241Z,24.70
2022-08-20T17:23:55.999Z,24.60
2022-08-20T17:26:00.365Z,24.60
2022-08-20T17:28:13.945Z,24.50
2022-08-20T17:30:23.343Z,24.40
2022-08-20T17:32:27.367Z,24.40
2022-08-20T17:34:31.476Z,24.30
2022-08-20T17:36:34.211Z,24.20
2022-08-20T17:38:39.179Z,24.20
2022-08-20T17:40:45.850Z,24.20
2022-08-20T17:42:49.456Z,24.10
2022-08-20T17:44:55.496Z,24.10
2022-08-20T17:46:58.228Z,24.10
2022-08-20T17:49:01.168Z,24.10
2022-08-20T17:51:08.050Z,24.00
2022-08-20T17:53:21.235Z,24.00
2022-08-20T17:55:25.986Z,23.90
2022-08-20T17:57:33.112Z,23.90
2022-08-20T18:00:00.807Z,23.90
2022-08-20T18:02:02.289Z,23.80
2022-08-20T18:04:05.083Z,23.70
2022-08-20T18:06:11.373Z,23.80
2022-08-20T18:08:30.751Z,23.70
2022-08-20T18:10:35.425Z,23.70
2022-08-20T18:12:40.466Z,23.70
2022-08-20T18:14:48.797Z,23.70
2022-08-20T18:17:02.996Z,23.70
2022-08-20T18:19:12.026Z,23.70
2022-08-20T18:21:24.937Z,23.70
2022-08-20T18:23:28.853Z,23.60
2022-08-20T18:25:33.245Z,23.60
2022-08-20T18:27:38.785Z,23.60
2022-08-20T18:29:43.469Z,23.60
2022-08-20T18:31:51.080Z,23.50
2022-08-20T18:33:53.803Z,23.50
2022-08-20T18:36:09.749Z,23.40
2022-08-20T18:38:28.171Z,23.40
2022-08-20T18:40:33.424Z,23.30
2022-08-20T18:42:37.089Z,23.30
2022-08-20T18:44:40.789Z,23.30
2022-08-20T18:46:52.520Z,23.30
2022-08-20T18:48:57.330Z,23.20
2022-08-20T18:51:00.050Z,23.20
2022-08-20T18:53:16.641Z,23.10
2022-08-20T18:55:30.533Z,23.10
2022-08-20T18:57:40.612Z,23.00
2022-08-20T18:59:46.788Z,23.00
2022-08-20T19:01:50.021Z,23.00
2022-08-20T19:03:53.845Z,23.00
2022-08-20T19:06:05.407Z,22.90
2022-08-20T19:08:08.356Z,22.90
2022-08-20T19:10:27.859Z,22.90
2022-08-20T19:12:41.128Z,22.80
2022-08-20T19:15:01.131Z,22.80
2022-08-20T19:17:06.735Z,22.70
2022-08-20T19:19:14.686Z,22.70
2022-08-20T19:21:17.504Z,22.60
2022-08-20T19:23:21.174Z,22.60
2022-08-20T19:25:27.661Z,22.60
2022-08-20T19:27:30.413Z,22.50
2022-08-20T19:29:35.028Z,22.50
2022-08-20T19:31:38.189Z,22.40
2022-08-20T19:33:44.317Z,22.40
2022-08-20T19:35:47.228Z,22.40
2022-08-20T19:37:51.687Z,22.30
2022-08-20T19:39:54.783Z,22.30
2022-08-20T19:42:01.309Z,22.30
2022-08-20T19:44:04.049Z,22.20
2022-08-20T19:46:06.979Z,22.20
2022-08-20T19:48:27.435Z,22.20
2022-08-20T19:50:33.202Z,22.10
2022-08-20T19:52:40.139Z,22.10
2022-08-20T19:54:47.967Z,22.00
2022-08-20T19:56:51.004Z,21.90
2022-08-20T19:59:02.037Z,21.90
2022-08-20T20:01:05.772Z,21.90
2022-08-20T20:03:11.679Z,21.80
2022-08-20T20:05:14.380Z,21.70
2022-08-20T20:07:17.872Z,21.70
2022-08-20T20:09:24.740Z,21.70
2022-08-20T20:11:32.662Z,21.60
2022-08-20T20:13:37.767Z,21.60
2022-08-20T20:15:43.946Z,21.60
2022-08-20T20:17:46.677Z,21.50
2022-08-20T20:19:51.093Z,21.40
2022-08-20T20:22:02.127Z,21.40
2022-08-20T20:24:05.052Z,21.40
2022-08-20T20:26:08.882Z,21.30
2022-08-20T20:28:14.269Z,21.30
2022-08-20T20:30:21.373Z,21.30
2022-08-20T20:32:27.727Z,21.20
2022-08-20T20:34:31.568Z,21.20
2022-08-20T20:36:36.332Z,21.10
2022-08-20T20:38:39.868Z,21.10
2022-08-20T20:40:46.982Z,21.10
2022-08-20T20:42:57.980Z,21.00
2022-08-20T20:45:00.979Z,21.00
2022-08-20T20:47:05.594Z,21.00
2022-08-20T20:49:19.111Z,20.90
2022-08-20T20:51:24.071Z,20.90
2022-08-20T20:53:32.488Z,20.80
2022-08-20T20:55:56.329Z,20.70
2022-08-20T20:57:59.718Z,20.60
2022-08-20T21:00:07.089Z,20.50
2022-08-20T21:02:09.852Z,20.50
2022-08-20T21:04:12.645Z,20.50
2022-08-20T21:06:16.726Z,20.40
2022-08-20T21:08:19.458Z,20.40
2022-08-20T21:10:23.232Z,20.30
2022-08-20T21:12:26.227Z,20.30
2022-08-20T21:14:28.960Z,20.30
2022-08-20T21:16:31.673Z,20.30
2022-08-20T21:18:36.553Z,20.30
2022-08-20T21:20:39.299Z,20.30
2022-08-20T21:22:43.356Z,20.20
2022-08-20T21:24:48.404Z,20.20
2022-08-20T21:26:51.182Z,20.10
2022-08-20T21:28:53.903Z,20.10
2022-08-20T21:30:58.598Z,20.00
2022-08-20T21:33:01.449Z,20.00
2022-08-20T21:35:04.778Z,19.90
2022-08-20T21:37:07.483Z,19.80
2022-08-20T21:39:11.551Z,19.60
2022-08-20T21:41:14.897Z,19.50
2022-08-20T21:43:18.735Z,19.40
2022-08-20T21:45:21.689Z,19.40
2022-08-20T21:47:24.395Z,19.40
2022-08-20T21:49:27.740Z,19.30
2022-08-20T21:51:30.525Z,19.20
2022-08-20T21:53:35.825Z,19.10
2022-08-20T21:55:39.971Z,19.10
2022-08-20T21:57:42.777Z,19.00
2022-08-20T21:59:45.475Z,19.00
2022-08-20T22:01:48.197Z,19.00
2022-08-20T22:03:51.908Z,18.90
2022-08-20T22:05:54.955Z,18.80
2022-08-20T22:07:57.671Z,18.70
2022-08-20T22:10:00.395Z,18.60
2022-08-20T22:12:05.086Z,18.60
2022-08-20T22:14:08.662Z,18.50
2022-08-20T22:16:12.480Z,18.50
2022-08-20T22:18:15.221Z,18.40
2022-08-20T22:20:18.035Z,18.30
2022-08-20T22:22:21.116Z,18.30
2022-08-20T22:24:23.836Z,18.20
2022-08-20T22:26:27.282Z,18.10
2022-08-20T22:28:31.557Z,18.00
2022-08-20T22:30:34.269Z,18.00
2022-08-20T22:32:51.371Z,17.90
2022-08-20T22:34:54.930Z,18.00
2022-08-20T22:36:57.639Z,18.00
2022-08-20T22:39:00.359Z,18.00
2022-08-20T22:41:06.404Z,18.00
2022-08-20T22:43:12.235Z,17.90
2022-08-20T22:45:16.438Z,17.90
2022-08-20T22:47:19.192Z,17.80
2022-08-20T22:49:24.777Z,17.80
2022-08-20T22:51:30.213Z,17.80
2022-08-20T22:53:33.122Z,17.80
2022-08-20T22:55:35.877Z,17.80
2022-08-20T22:57:38.880Z,17.70
2022-08-20T22:59:49.527Z,17.60
2022-08-20T23:01:57.368Z,17.40
2022-08-20T23:04:03.559Z,17.40
2022-08-20T23:06:06.778Z,17.40
2022-08-20T23:08:09.543Z,17.40
2022-08-20T23:10:12.267Z,17.30
2022-08-20T23:12:14.980Z,17.40
2022-08-20T23:14:17.751Z,17.40
2022-08-20T23:16:20.460Z,17.40
2022-08-20T23:18:24.561Z,17.30
2022-08-20T23:20:27.280Z,17.20
2022-08-20T23:22:30.348Z,17.10
2022-08-20T23:24:33.080Z,17.00
2022-08-20T23:26:35.800Z,17.00
2022-08-20T23:28:38.564Z,17.00
2022-08-20T23:30:42.080Z,17.00
2022-08-20T23:32:44.799Z,16.90
2022-08-20T23:34:48.873Z,17.00
2022-08-20T23:36:52.372Z,16.90
2022-08-20T23:38:55.146Z,17.00
2022-08-20T23:40:57.848Z,17.00
2022-08-20T23:43:00.657Z,16.90
2022-08-20T23:45:03.421Z,16.90
2022-08-20T23:47:06.303Z,16.80
2022-08-20T23:49:09.073Z,16.70
2022-08-20T23:51:13.136Z,16.60
2022-08-20T23:53:15.860Z,16.40
2022-08-20T23:55:18.687Z,16.40
2022-08-20T23:57:21.404Z,16.50
2022-08-20T23:59:24.167Z,16.40
